Time;durP1;ratioP1;P1;durP2;ratioP2;P2;SDS_P1;SDS_P2;PMS_P1;PMS_P2;Temp;Humidity;BMP_temperature;BMP_pressure;BME280_temperature;BME280_humidity;BME280_pressure;Samples;Min_cycle;Max_cycle;Signal;HPM_P1;HPM_P2
2023/02/01 00:00:44;;;;;;;;;9.00;6.00;;;;;9.03;100.00;102475.69;5058598;28;57805;-82
2023/02/01 00:03:11;;;;;;;;;6.75;5.25;;;;;9.03;100.00;102479.16;5075953;28;64418;-81
2023/02/01 00:05:36;;;;;;;;;6.50;6.25;;;;;9.06;100.00;102475.69;5077043;28;45709;-82
2023/02/01 00:08:01;;;;;;;;;12.50;8.00;;;;;9.06;100.00;102473.09;5058240;27;61907;-81
2023/02/01 00:10:26;;;;;;;;;5.50;5.50;;;;;9.04;100.00;102478.28;5076589;27;59620;-81
2023/02/01 00:12:52;;;;;;;;;9.00;6.00;;;;;9.06;100.00;102480.88;5057885;27;69430;-82
2023/02/01 00:15:17;;;;;;;;;6.00;3.25;;;;;9.02;100.00;102477.41;5075879;28;45375;-82
2023/02/01 00:17:43;;;;;;;;;6.50;5.00;;;;;9.00;100.00;102471.34;5076509;27;45225;-82
2023/02/01 00:20:09;;;;;;;;;8.75;8.00;;;;;9.00;100.00;102466.16;5076198;28;63218;-81
2023/02/01 00:22:34;;;;;;;;;6.00;6.00;;;;;8.98;100.00;102459.22;5076767;28;46437;-81
2023/02/01 00:24:59;;;;;;;;;5.50;5.00;;;;;8.96;100.00;102459.19;5057833;28;66957;-82
2023/02/01 00:27:25;;;;;;;;;5.75;5.50;;;;;8.92;100.00;102454.84;5076799;27;45358;-82
2023/02/01 00:29:50;;;;;;;;;6.50;4.50;;;;;8.88;100.00;102448.78;5076845;28;45554;-82
2023/02/01 00:32:15;;;;;;;;;9.00;6.00;;;;;8.84;100.00;102448.72;5075234;27;69406;-82
2023/02/01 00:34:41;;;;;;;;;5.00;1.50;;;;;8.77;100.00;102439.19;5075805;27;62488;-82
2023/02/01 00:37:07;;;;;;;;;7.50;6.00;;;;;8.72;100.00;102442.63;5076794;27;45321;-81
2023/02/01 00:39:32;;;;;;;;;12.25;6.75;;;;;8.68;100.00;102450.38;5076663;28;45327;-81
2023/02/01 00:41:57;;;;;;;;;4.25;4.25;;;;;8.64;100.00;102453.84;5076204;28;56498;-81
2023/02/01 00:44:23;;;;;;;;;6.00;5.50;;;;;8.62;100.00;102458.16;5075988;28;56456;-82
2023/02/01 00:46:48;;;;;;;;;9.00;5.50;;;;;8.59;100.00;102452.94;5075996;28;45304;-82
2023/02/01 00:49:13;;;;;;;;;1.00;1.00;;;;;8.63;100.00;102454.69;5074416;28;68138;-82
2023/02/01 00:51:38;;;;;;;;;8.25;4.50;;;;;8.62;100.00;102453.81;5075776;28;63065;-81
2023/02/01 00:54:04;;;;;;;;;8.50;6.00;;;;;8.64;100.00;102456.44;5057515;28;62163;-82
2023/02/01 00:56:29;;;;;;;;;9.25;6.00;;;;;8.66;100.00;102449.50;5076420;27;46587;-82
2023/02/01 00:58:55;;;;;;;;;7.25;6.00;;;;;8.69;100.00;102458.19;5076440;28;45385;-82
2023/02/01 01:01:23;;;;;;;;;6.75;4.50;;;;;8.70;100.00;102457.31;5075940;28;45661;-82
2023/02/01 01:03:50;;;;;;;;;6.50;5.50;;;;;8.72;100.00;102463.38;5058110;28;45531;-82
2023/02/01 01:06:19;;;;;;;;;4.75;4.00;;;;;8.74;100.00;102468.59;5076313;28;45407;-81
2023/02/01 01:08:46;;;;;;;;;6.75;6.00;;;;;8.76;100.00;102468.59;5058156;28;45569;-82
2023/02/01 01:11:18;;;;;;;;;3.25;1.50;;;;;8.75;100.00;102464.25;5058049;28;46259;-82
2023/02/01 01:13:46;;;;;;;;;7.25;4.25;;;;;8.72;100.00;102465.97;5074752;28;45720;-81
2023/02/01 01:16:11;;;;;;;;;5.25;4.75;;;;;8.68;100.00;102471.16;5057579;28;45422;-82
2023/02/01 01:18:37;;;;;;;;;8.00;4.50;;;;;8.67;100.00;102469.41;5075772;28;48446;-81
2023/02/01 01:21:07;;;;;;;;;7.75;4.00;;;;;8.69;100.00;102467.69;5076100;28;45342;-81
2023/02/01 01:23:32;;;;;;;;;6.75;4.25;;;;;8.69;100.00;102470.28;5075965;27;45481;-81
2023/02/01 01:25:57;;;;;;;;;8.00;3.50;;;;;8.72;100.00;102465.13;5075722;27;45419;-82
2023/02/01 01:28:23;;;;;;;;;5.00;4.50;;;;;8.75;100.00;102467.75;5075317;28;65650;-81
2023/02/01 01:30:48;;;;;;;;;3.75;3.00;;;;;8.77;100.00;102471.22;5073778;28;61977;-82
2023/02/01 01:33:14;;;;;;;;;6.00;5.00;;;;;8.79;100.00;102479.03;5057556;28;45443;-82
2023/02/01 01:35:39;;;;;;;;;6.00;3.25;;;;;8.81;100.00;102477.31;5057221;28;49734;-82
2023/02/01 01:38:04;;;;;;;;;5.00;2.75;;;;;8.82;100.00;102485.09;5075245;28;61892;-82
2023/02/01 01:40:30;;;;;;;;;8.75;4.00;;;;;8.83;100.00;102478.19;5075713;27;50352;-82
2023/02/01 01:42:56;;;;;;;;;6.00;4.50;;;;;8.84;100.00;102478.19;5057536;28;45421;-81
2023/02/01 01:45:26;;;;;;;;;10.25;4.50;;;;;8.84;100.00;102485.97;5075323;28;45364;-82
2023/02/01 01:47:54;;;;;;;;;5.00;5.00;;;;;8.84;100.00;102487.69;5075945;28;45373;-82
2023/02/01 01:50:38;;;;;;;;;8.25;3.25;;;;;8.83;100.00;102480.78;5057491;28;46432;-81
2023/02/01 01:53:06;;;;;;;;;2.50;2.00;;;;;8.84;100.00;102480.78;5057495;28;45308;-81
2023/02/01 01:55:35;;;;;;;;;11.75;4.00;;;;;8.81;100.00;102485.09;5057504;28;45395;-81
2023/02/01 01:58:05;;;;;;;;;5.50;4.00;;;;;8.80;100.00;102488.53;5057074;28;45370;-81
2023/02/01 02:00:31;;;;;;;;;5.25;2.00;;;;;8.78;100.00;102496.31;5057594;28;45489;-81
2023/02/01 02:02:59;;;;;;;;;4.75;3.00;;;;;8.78;100.00;102498.91;5075399;28;45451;-82
2023/02/01 02:05:24;;;;;;;;;4.00;2.00;;;;;8.77;100.00;102496.31;5057255;28;45411;-82
2023/02/01 02:07:53;;;;;;;;;4.00;3.25;;;;;8.78;100.00;102487.66;5075572;28;45214;-81
2023/02/01 02:10:19;;;;;;;;;5.75;1.75;;;;;8.78;100.00;102485.91;5075417;28;45600;-82
2023/02/01 02:12:46;;;;;;;;;1.50;1.50;;;;;8.82;100.00;102492.00;5056831;28;45592;-82
2023/02/01 02:15:13;;;;;;;;;4.75;1.25;;;;;8.81;100.00;102485.94;5057315;28;45959;-82
2023/02/01 02:17:41;;;;;;;;;5.00;1.00;;;;;8.82;100.00;102473.81;5013672;28;45594;-82
2023/02/01 02:20:22;;;;;;;;;9.00;1.75;;;;;8.85;100.00;102485.09;4972511;27;46659;-81
2023/02/01 02:23:02;;;;;;;;;4.00;0.25;;;;;8.83;100.00;102478.19;4972582;28;45819;-82
2023/02/01 02:25:31;;;;;;;;;1.75;1.75;;;;;8.85;100.00;102479.91;4987460;28;45292;-82
2023/02/01 02:28:02;;;;;;;;;6.00;2.25;;;;;8.87;100.00;102479.94;4987366;28;45521;-82
2023/02/01 02:30:33;;;;;;;;;4.50;2.00;;;;;8.88;100.00;102477.34;4972571;28;45708;-82
2023/02/01 02:33:10;;;;;;;;;7.75;1.75;;;;;8.93;100.00;102473.91;4972369;28;45639;-82
2023/02/01 02:35:47;;;;;;;;;2.25;2.00;;;;;8.94;100.00;102458.31;4972396;28;45321;-82
2023/02/01 02:38:22;;;;;;;;;2.00;1.75;;;;;8.92;100.00;102460.06;4971629;28;45388;-81
2023/02/01 02:40:55;;;;;;;;;5.50;2.50;;;;;8.88;100.00;102463.50;4974250;28;45545;-81
2023/02/01 02:49:22;;;;;;;;;1.00;0.50;;;;;8.76;100.00;102463.41;4974583;28;45420;-82
2023/02/01 02:54:51;;;;;;;;;1.25;1.25;;;;;8.74;100.00;102488.50;4974415;28;45318;-81
2023/02/01 03:05:45;;;;;;;;;4.50;2.00;;;;;8.68;100.00;102492.78;4975110;28;45323;-82
2023/02/01 03:08:16;;;;;;;;;1.50;0.00;;;;;8.68;100.00;102489.31;4975244;27;45374;-81
2023/02/01 03:11:10;;;;;;;;;1.00;1.00;;;;;8.65;100.00;102490.16;4973639;28;45298;-81
2023/02/01 03:13:51;;;;;;;;;2.00;2.00;;;;;8.65;100.00;102484.97;4973873;28;46448;-81
2023/02/01 03:16:28;;;;;;;;;2.00;1.50;;;;;8.63;100.00;102481.50;4973716;28;45380;-81
2023/02/01 03:19:05;;;;;;;;;4.75;2.00;;;;;8.59;100.00;102499.66;5022189;28;45347;-81
2023/02/01 03:21:38;;;;;;;;;1.75;1.75;;;;;8.64;100.00;102498.81;5022333;28;45562;-81
2023/02/01 03:24:09;;;;;;;;;4.25;1.00;;;;;8.64;100.00;102497.97;5022030;28;45452;-81
2023/02/01 03:26:38;;;;;;;;;2.00;2.00;;;;;8.63;100.00;102485.81;5021704;28;45642;-82
2023/02/01 03:29:17;;;;;;;;;4.50;2.00;;;;;8.64;100.00;102480.66;5021876;28;45397;-81
2023/02/01 03:31:43;;;;;;;;;2.00;2.00;;;;;8.62;100.00;102484.97;5022173;28;45425;-82
2023/02/01 03:34:10;;;;;;;;;8.00;1.00;;;;;8.63;100.00;102497.06;4954093;28;69990;-81
2023/02/01 03:36:46;;;;;;;;;6.75;2.00;;;;;8.64;100.00;102483.25;4955411;28;45713;-82
2023/02/01 03:39:23;;;;;;;;;1.00;1.00;;;;;8.68;100.00;102491.94;5022139;28;45802;-82
2023/02/01 03:41:51;;;;;;;;;4.00;1.50;;;;;8.70;100.00;102495.41;4955409;28;45475;-82
2023/02/01 03:44:26;;;;;;;;;1.25;1.00;;;;;8.71;100.00;102484.13;4955168;28;46503;-81
2023/02/01 03:47:03;;;;;;;;;3.25;2.00;;;;;8.69;100.00;102481.56;5021912;28;45641;-81
2023/02/01 03:49:54;;;;;;;;;3.50;2.00;;;;;8.70;100.00;102477.22;4955210;28;45382;-81
2023/02/01 03:52:25;;;;;;;;;5.00;2.00;;;;;8.67;100.00;102472.00;4955286;28;45457;-82
2023/02/01 03:54:52;;;;;;;;;1.00;1.00;;;;;8.65;100.00;102484.09;5020930;28;46379;-81
2023/02/01 03:57:23;;;;;;;;;1.00;1.00;;;;;8.63;100.00;102483.22;5021378;28;45352;-81
2023/02/01 03:59:49;;;;;;;;;2.00;2.00;;;;;8.66;100.00;102485.84;5005455;28;45431;-81
2023/02/01 04:02:15;;;;;;;;;2.75;2.75;;;;;8.66;100.00;102496.25;4954613;28;55938;-82
2023/02/01 04:04:40;;;;;;;;;6.25;2.00;;;;;8.65;100.00;102494.50;4953852;28;70644;-82
2023/02/01 04:07:05;;;;;;;;;3.25;2.00;;;;;8.68;100.00;102486.72;5020550;28;67551;-82
2023/02/01 04:09:31;;;;;;;;;1.00;0.00;;;;;8.70;100.00;102483.28;4954318;28;52594;-82
2023/02/01 04:11:56;;;;;;;;;1.00;1.00;;;;;8.72;100.00;102478.97;5021436;28;45396;-82
2023/02/01 04:14:21;;;;;;;;;5.50;1.00;;;;;8.76;100.00;102489.38;5021246;28;46290;-82
2023/02/01 04:16:47;;;;;;;;;1.25;1.25;;;;;8.74;100.00;102486.75;4969537;28;64820;-81
2023/02/01 04:19:12;;;;;;;;;3.00;2.50;;;;;8.75;100.00;102488.53;5076347;28;60204;-82
2023/02/01 04:21:37;;;;;;;;;4.00;1.50;;;;;8.76;100.00;102486.78;5076495;28;55816;-81
2023/02/01 04:24:03;;;;;;;;;3.25;1.75;;;;;8.76;100.00;102485.03;5076462;27;46386;-81
2023/02/01 04:26:28;;;;;;;;;1.25;0.25;;;;;8.71;100.00;102492.81;5076800;27;45381;-82
2023/02/01 04:28:54;;;;;;;;;2.00;2.00;;;;;8.72;100.00;102483.28;5058643;28;45443;-82
2023/02/01 04:31:25;;;;;;;;;0.00;0.00;;;;;8.72;100.00;102498.88;5058656;28;46000;-80
2023/02/01 04:33:54;;;;;;;;;5.50;1.00;;;;;8.69;100.00;102489.34;5076623;27;46341;-82
2023/02/01 04:36:21;;;;;;;;;3.50;1.50;;;;;8.68;100.00;102491.94;5058502;27;45339;-82
2023/02/01 04:38:47;;;;;;;;;2.75;1.25;;;;;8.62;100.00;102497.09;5058261;28;45314;-82
2023/02/01 04:41:12;;;;;;;;;4.00;1.25;;;;;8.51;100.00;102487.47;5076766;27;45328;-82
2023/02/01 04:43:38;;;;;;;;;3.75;2.50;;;;;8.44;100.00;102487.41;5075424;28;71857;-82
2023/02/01 04:46:04;;;;;;;;;4.00;2.00;;;;;8.38;100.00;102489.94;5075760;28;64011;-82
2023/02/01 04:48:30;;;;;;;;;2.00;2.00;;;;;8.34;100.00;102496.84;5076861;28;45371;-82
2023/02/01 04:50:55;;;;;;;;;7.00;2.00;;;;;8.25;100.00;102494.16;5076349;27;45511;-81
2023/02/01 04:53:21;;;;;;;;;0.75;0.75;;;;;8.17;100.00;102499.25;5075854;28;47159;-82
2023/02/01 04:55:48;;;;;;;;;2.00;2.00;;;;;8.14;100.00;102504.44;5058120;28;45526;-81
2023/02/01 04:58:13;;;;;;;;;5.50;0.75;;;;;8.10;100.00;102507.84;5075268;27;45503;-82
2023/02/01 05:00:38;;;;;;;;;1.00;1.00;;;;;8.04;100.00;102512.97;5040182;28;67860;-82
2023/02/01 05:03:04;;;;;;;;;1.75;1.00;;;;;8.00;100.00;102513.78;5074890;27;70749;-81
2023/02/01 05:05:29;;;;;;;;;3.00;3.00;;;;;7.97;100.00;102518.94;5075808;28;57025;-81
2023/02/01 05:07:55;;;;;;;;;8.25;1.00;;;;;7.90;100.00;102515.44;5076057;28;45581;-82
2023/02/01 05:10:20;;;;;;;;;1.50;1.00;;;;;7.83;100.00;102514.47;5057756;28;49180;-81
2023/02/01 05:15:30;;;;;;;;;5.00;1.00;;;;;7.80;100.00;102505.78;5076200;28;45387;-82
2023/02/01 05:17:56;;;;;;;;;4.50;2.00;;;;;7.75;100.00;102514.41;5005193;28;45401;-82
2023/02/01 05:20:21;;;;;;;;;4.50;2.00;;;;;7.73;100.00;102516.09;4973653;28;45421;-81
2023/02/01 05:22:47;;;;;;;;;2.00;1.25;;;;;7.70;100.00;102521.25;4971127;28;61476;-81
2023/02/01 05:25:12;;;;;;;;;2.00;1.00;;;;;7.70;100.00;102528.16;4971668;28;64156;-82
2023/02/01 05:27:37;;;;;;;;;0.75;0.00;;;;;7.71;100.00;102520.41;4972525;28;62665;-81
2023/02/01 05:30:04;;;;;;;;;1.75;0.75;;;;;7.75;100.00;102514.41;4972675;28;65957;-81
2023/02/01 05:32:30;;;;;;;;;2.00;1.00;;;;;7.80;100.00;102514.47;4971940;28;46261;-82
2023/02/01 05:34:55;;;;;;;;;1.25;1.00;;;;;7.85;100.00;102520.53;4971942;28;45403;-81
2023/02/01 05:37:20;;;;;;;;;2.50;1.00;;;;;7.91;100.00;102535.28;4972356;28;64766;-82
2023/02/01 05:39:46;;;;;;;;;4.25;2.00;;;;;7.97;100.00;102537.09;4972717;28;58424;-81
2023/02/01 05:42:11;;;;;;;;;3.50;1.00;;;;;7.98;100.00;102529.31;4973266;28;46062;-81
2023/02/01 05:44:36;;;;;;;;;5.75;1.00;;;;;8.02;100.00;102525.91;4971971;28;45731;-81
2023/02/01 05:47:02;;;;;;;;;5.00;1.50;;;;;8.03;100.00;102532.84;4972533;28;58808;-82
2023/02/01 05:49:27;;;;;;;;;2.25;1.75;;;;;8.02;100.00;102523.31;4972501;28;63675;-81
2023/02/01 05:51:52;;;;;;;;;1.00;1.00;;;;;8.02;100.00;102515.53;4970908;28;66387;-81
2023/02/01 05:54:18;;;;;;;;;1.25;1.25;;;;;8.05;100.00;102525.09;4972283;28;64949;-82
2023/02/01 05:56:43;;;;;;;;;4.00;1.00;;;;;8.02;100.00;102525.03;4972314;28;64049;-82
2023/02/01 05:59:09;;;;;;;;;3.25;1.00;;;;;8.02;100.00;102525.03;4972370;28;62757;-81
2023/02/01 06:01:34;;;;;;;;;4.50;0.50;;;;;8.02;100.00;102522.44;4972840;28;46361;-82
2023/02/01 06:04:00;;;;;;;;;1.00;1.00;;;;;8.02;100.00;102528.50;4971028;28;62360;-82
2023/02/01 06:06:25;;;;;;;;;3.50;1.00;;;;;8.03;100.00;102529.38;4971922;28;61261;-82
2023/02/01 06:08:50;;;;;;;;;5.00;2.00;;;;;8.04;100.00;102520.75;4972206;28;59338;-82
2023/02/01 06:11:16;;;;;;;;;1.75;0.75;;;;;8.04;100.00;102525.94;4972010;28;68518;-82
2023/02/01 06:13:41;;;;;;;;;5.75;0.75;;;;;8.03;100.00;102537.16;4972968;28;66795;-82
2023/02/01 06:16:07;;;;;;;;;4.50;1.50;;;;;7.99;100.00;102535.41;4975164;28;62483;-81
2023/02/01 06:18:35;;;;;;;;;1.50;0.75;;;;;7.97;100.00;102534.50;5063668;27;45431;-81
2023/02/01 06:21:01;;;;;;;;;1.25;0.75;;;;;7.95;100.00;102542.28;5078615;27;45408;-81
2023/02/01 06:23:27;;;;;;;;;2.00;0.00;;;;;8.00;100.00;102542.31;5078789;27;45503;-82
2023/02/01 06:25:59;;;;;;;;;3.50;2.00;;;;;8.04;100.00;102539.78;5078759;28;45451;-82
2023/02/01 06:28:24;;;;;;;;;4.00;2.00;;;;;8.03;100.00;102530.25;5060772;28;45503;-82
2023/02/01 06:30:50;;;;;;;;;4.75;1.75;;;;;8.01;100.00;102529.38;5060602;27;47227;-82
2023/02/01 06:33:15;;;;;;;;;1.00;1.00;;;;;7.98;100.00;102524.13;5077498;28;68048;-81
2023/02/01 06:35:44;;;;;;;;;0.75;0.00;;;;;7.96;100.00;102531.03;5078325;27;45521;-82
2023/02/01 06:38:13;;;;;;;;;4.50;1.00;;;;;7.94;100.00;102527.56;5060676;28;45450;-81
2023/02/01 06:40:40;;;;;;;;;4.00;1.00;;;;;7.96;100.00;102520.66;5078517;28;46341;-81
2023/02/01 06:43:06;;;;;;;;;3.50;1.50;;;;;7.98;100.00;102531.91;5078513;28;45807;-81
2023/02/01 06:45:31;;;;;;;;;2.00;1.00;;;;;7.96;100.00;102538.81;5078612;28;45422;-81
2023/02/01 06:47:59;;;;;;;;;1.50;0.00;;;;;7.93;100.00;102541.38;5078218;27;45376;-82
2023/02/01 06:50:24;;;;;;;;;4.00;2.00;;;;;7.87;100.00;102549.09;5078255;28;46609;-81
2023/02/01 06:52:49;;;;;;;;;4.25;2.00;;;;;7.81;100.00;102551.63;5077443;28;69491;-81
2023/02/01 06:55:15;;;;;;;;;2.00;1.00;;;;;7.76;100.00;102551.53;5076383;28;62621;-81
2023/02/01 06:57:40;;;;;;;;;1.00;1.00;;;;;7.70;100.00;102549.75;5077696;27;58977;-81
2023/02/01 07:00:06;;;;;;;;;4.00;1.00;;;;;7.65;100.00;102554.03;5077405;28;69921;-81
2023/02/01 07:02:31;;;;;;;;;5.25;2.50;;;;;7.62;100.00;102560.91;5059708;28;45344;-80
2023/02/01 07:04:56;;;;;;;;;4.50;1.00;;;;;7.55;100.00;102554.75;5078108;27;47155;-80
2023/02/01 07:07:22;;;;;;;;;3.00;1.00;;;;;7.52;100.00;102549.53;5077325;28;63071;-77
2023/02/01 07:09:49;;;;;;;;;0.75;0.50;;;;;7.45;100.00;102547.72;5060017;28;46132;-78
2023/02/01 07:12:14;;;;;;;;;3.25;3.00;;;;;7.39;100.00;102545.91;5078119;27;45353;-78
2023/02/01 07:14:39;;;;;;;;;5.75;2.00;;;;;7.34;100.00;102555.34;5077325;27;61705;-78
2023/02/01 07:17:05;;;;;;;;;2.50;1.00;;;;;7.34;100.00;102566.59;5077097;27;56113;-78
2023/02/01 07:19:30;;;;;;;;;4.50;2.00;;;;;7.35;100.00;102570.94;5077294;27;63156;-78
2023/02/01 07:21:55;;;;;;;;;4.00;2.00;;;;;7.35;100.00;102580.41;5076881;28;45624;-78
2023/02/01 07:24:21;;;;;;;;;4.50;1.00;;;;;7.34;100.00;102583.84;5076059;28;53262;-79
2023/02/01 07:26:47;;;;;;;;;6.00;2.50;;;;;7.32;100.00;102582.97;5077222;27;45518;-78
2023/02/01 07:29:13;;;;;;;;;2.00;1.75;;;;;7.31;100.00;102586.38;5077351;28;46233;-78
2023/02/01 07:31:38;;;;;;;;;7.50;3.50;;;;;7.31;100.00;102589.84;5077393;27;45293;-78
2023/02/01 07:34:04;;;;;;;;;9.25;4.00;;;;;7.30;100.00;102595.88;5076678;27;45741;-78
2023/02/01 07:36:29;;;;;;;;;4.75;3.00;;;;;7.32;100.00;102589.00;5077728;27;45378;-78
2023/02/01 07:38:55;;;;;;;;;6.25;2.00;;;;;7.36;100.00;102597.69;5076145;27;68135;-78
2023/02/01 07:41:20;;;;;;;;;5.75;1.75;;;;;7.41;100.00;102602.94;5076147;27;45460;-78
2023/02/01 07:43:46;;;;;;;;;3.00;2.00;;;;;7.44;100.00;102605.56;5077526;27;45375;-78
2023/02/01 07:46:11;;;;;;;;;3.00;1.00;;;;;7.46;100.00;102611.66;5059070;28;45432;-78
2023/02/01 07:48:37;;;;;;;;;6.00;3.50;;;;;7.49;100.00;102622.06;5077666;28;45339;-79
2023/02/01 07:51:09;;;;;;;;;8.75;2.50;;;;;7.50;100.00;102635.03;5077556;28;45432;-79
2023/02/01 07:53:34;;;;;;;;;7.00;4.50;;;;;7.56;100.00;102631.66;5077409;28;45408;-79
2023/02/01 07:56:00;;;;;;;;;9.00;4.00;;;;;7.59;100.00;102626.50;5077442;27;45403;-78
2023/02/01 07:58:26;;;;;;;;;8.75;5.00;;;;;7.64;100.00;102624.00;5077269;27;46350;-78
2023/02/01 08:03:35;;;;;;;;;4.25;4.00;;;;;7.75;100.00;102633.66;5077499;27;45454;-78
2023/02/01 08:06:01;;;;;;;;;11.00;2.00;;;;;7.79;100.00;102631.09;5077164;28;45230;-78
2023/02/01 08:08:26;;;;;;;;;7.50;3.00;;;;;7.81;100.00;102634.59;5076407;28;64150;-79
2023/02/01 08:10:57;;;;;;;;;5.75;3.00;;;;;7.80;100.00;102623.34;5076256;28;66574;-79
2023/02/01 08:13:22;;;;;;;;;11.25;5.50;;;;;7.82;100.00;102620.75;5077105;27;45396;-78
2023/02/01 08:15:48;;;;;;;;;7.00;5.00;;;;;7.87;100.00;102617.38;5058518;28;45488;-78
2023/02/01 08:18:16;;;;;;;;;8.00;4.00;;;;;7.92;100.00;102620.03;5076519;27;53345;-78
2023/02/01 08:20:43;;;;;;;;;10.00;4.75;;;;;7.98;100.00;102621.81;5076978;28;45347;-79
2023/02/01 08:23:09;;;;;;;;;12.00;4.75;;;;;8.02;100.00;102610.63;5077175;27;45389;-79
2023/02/01 08:25:35;;;;;;;;;6.75;2.00;;;;;8.06;100.00;102602.91;5074825;28;45439;-79
2023/02/01 08:28:01;;;;;;;;;11.00;2.50;;;;;8.08;100.00;102605.53;5072880;27;45602;-78
2023/02/01 08:30:27;;;;;;;;;4.50;2.00;;;;;8.11;100.00;102602.94;5069206;27;45543;-77
2023/02/01 08:32:52;;;;;;;;;4.25;2.00;;;;;8.14;100.00;102598.66;5075864;28;45515;-77
2023/02/01 08:35:18;;;;;;;;;13.00;3.50;;;;;8.16;100.00;102603.03;5079425;27;45483;-77
2023/02/01 08:37:43;;;;;;;;;4.75;2.50;;;;;8.18;100.00;102596.13;5088188;27;70402;-78
2023/02/01 08:40:09;;;;;;;;;4.25;2.50;;;;;8.23;100.00;102587.53;5066296;27;55135;-77
2023/02/01 08:42:53;;;;;;;;;6.00;4.00;;;;;8.25;100.00;102580.63;5076177;27;45365;-78
2023/02/01 08:45:20;;;;;;;;;3.00;2.00;;;;;8.29;100.00;102569.41;5065020;27;45662;-78
2023/02/01 08:47:46;;;;;;;;;4.00;1.75;;;;;8.34;100.00;102577.28;5049628;28;45443;-77
2023/02/01 08:50:13;;;;;;;;;5.00;2.00;;;;;8.39;100.00;102572.97;5064775;27;45335;-77
2023/02/01 08:52:38;;;;;;;;;4.25;1.50;;;;;8.43;100.00;102577.38;5083509;27;45498;-76
2023/02/01 08:55:05;;;;;;;;;8.00;1.00;;;;;8.48;100.00;102570.50;5076526;27;45434;-76
2023/02/01 08:57:30;;;;;;;;;9.50;2.00;;;;;8.53;100.00;102575.75;5079952;27;46160;-76
2023/02/01 08:59:56;;;;;;;;;6.00;2.00;;;;;8.57;100.00;102579.22;5080245;27;45505;-76
2023/02/01 09:02:21;;;;;;;;;5.00;2.00;;;;;8.59;100.00;102573.19;5092075;27;63251;-76
2023/02/01 09:04:46;;;;;;;;;7.25;4.00;;;;;8.64;100.00;102583.63;5073830;27;45475;-77
2023/02/01 09:07:12;;;;;;;;;2.50;1.75;;;;;8.68;100.00;102582.78;5089809;27;46135;-76
2023/02/01 09:09:38;;;;;;;;;4.00;2.00;;;;;8.70;100.00;102589.72;5081951;27;45265;-78
2023/02/01 09:12:04;;;;;;;;;5.00;2.00;;;;;8.76;100.00;102588.03;5075989;27;45369;-78
2023/02/01 09:14:30;;;;;;;;;2.25;1.25;;;;;8.81;100.00;102599.34;5059933;28;45296;-78
2023/02/01 09:16:55;;;;;;;;;10.50;2.25;;;;;8.87;100.00;102599.38;5086594;27;70076;-77
2023/02/01 09:19:20;;;;;;;;;8.50;1.00;;;;;8.92;100.00;102595.09;5065668;27;53745;-78
2023/02/01 09:21:46;;;;;;;;;6.25;2.00;;;;;9.01;100.00;102599.50;5091699;27;45881;-76
2023/02/01 09:24:11;;;;;;;;;3.75;2.00;;;;;9.10;100.00;102613.44;5076051;27;45512;-77
2023/02/01 09:26:37;;;;;;;;;6.75;2.00;;;;;9.15;100.00;102616.03;5085694;27;45405;-77
2023/02/01 09:29:03;;;;;;;;;5.00;3.25;;;;;9.21;100.00;102621.31;5051832;28;45348;-77
2023/02/01 09:31:28;;;;;;;;;6.75;5.00;;;;;9.24;100.00;102623.91;5076231;27;45462;-77
2023/02/01 09:33:54;;;;;;;;;5.25;2.00;;;;;9.27;100.00;102630.88;5086540;27;45359;-77
2023/02/01 09:36:19;;;;;;;;;7.00;3.00;;;;;9.29;100.00;102643.00;5075755;27;70681;-78
2023/02/01 09:38:45;;;;;;;;;2.50;2.50;;;;;9.32;100.00;102646.47;5064912;27;45482;-80
2023/02/01 09:41:32;;;;;;;;;2.25;2.00;;;;;9.33;100.00;102654.28;5079890;27;45524;-79
2023/02/01 09:44:31;;;;;;;;;2.50;2.00;;;;;9.25;100.00;102646.44;5064720;27;45547;-79
2023/02/01 09:46:57;;;;;;;;;5.00;1.00;;;;;9.20;100.00;102655.94;5081599;27;46473;-79
2023/02/01 09:49:28;;;;;;;;;4.00;2.00;;;;;9.18;100.00;102655.03;5078715;27;45916;-76
2023/02/01 09:51:54;;;;;;;;;7.50;4.00;;;;;9.21;100.00;102649.00;5065358;27;45515;-78
2023/02/01 09:54:24;;;;;;;;;9.50;3.50;;;;;9.24;100.00;102656.81;5086022;27;69476;-79
2023/02/01 09:56:55;;;;;;;;;1.00;0.00;;;;;9.27;100.00;102652.53;5075516;27;45392;-78
2023/02/01 09:59:23;;;;;;;;;8.00;4.00;;;;;9.26;100.00;102648.16;5092204;27;45229;-79
2023/02/01 10:01:49;;;;;;;;;4.00;2.00;;;;;9.33;100.00;102645.63;5073655;27;45331;-79
2023/02/01 10:04:16;;;;;;;;;8.50;3.25;;;;;9.39;100.00;102661.25;5086345;27;45518;-79
2023/02/01 10:06:50;;;;;;;;;5.50;1.00;;;;;9.44;100.00;102650.03;5082412;27;46712;-79
2023/02/01 10:09:21;;;;;;;;;4.00;3.25;;;;;9.54;100.00;102653.53;5084769;27;45951;-78
2023/02/01 10:11:50;;;;;;;;;6.25;3.00;;;;;9.67;100.00;102654.50;5071738;27;45394;-79
2023/02/01 10:14:40;;;;;;;;;12.75;2.50;;;;;9.80;100.00;102642.41;5084007;27;45473;-79
2023/02/01 10:17:30;;;;;;;;;5.00;0.50;;;;;9.89;100.00;102637.25;5047788;28;46405;-79
2023/02/01 10:20:07;;;;;;;;;3.25;2.00;;;;;9.99;100.00;102639.06;4981040;27;45392;-79
2023/02/01 10:22:43;;;;;;;;;3.00;3.00;;;;;9.97;100.00;102648.56;5004366;28;45644;-78
2023/02/01 10:25:26;;;;;;;;;5.75;2.00;;;;;9.96;100.00;102643.38;5009132;28;45666;-78
2023/02/01 10:27:52;;;;;;;;;5.75;0.75;;;;;10.02;100.00;102649.44;4968527;28;46576;-79
2023/02/01 10:30:17;;;;;;;;;3.50;1.00;;;;;10.15;100.00;102654.72;4962848;28;45605;-78
2023/02/01 10:32:43;;;;;;;;;3.75;2.00;;;;;10.20;100.00;102640.84;5021784;28;45519;-77
2023/02/01 10:35:23;;;;;;;;;3.25;1.75;;;;;10.27;100.00;102642.59;4978793;28;45488;-78
2023/02/01 10:37:48;;;;;;;;;5.50;2.00;;;;;10.41;100.00;102639.19;4972573;28;47037;-78
2023/02/01 10:40:13;;;;;;;;;9.25;2.50;;;;;10.50;100.00;102638.34;4989076;28;45466;-78
2023/02/01 10:42:39;;;;;;;;;1.33;1.00;;;;;10.57;100.00;102640.97;4991495;28;45571;-78
2023/02/01 10:45:06;;;;;;;;;3.00;2.00;;;;;10.58;100.00;102634.03;4974042;28;45502;-78
2023/02/01 10:47:31;;;;;;;;;3.25;2.00;;;;;10.56;100.00;102636.63;4981308;27;45371;-79
2023/02/01 10:50:36;;;;;;;;;2.50;1.25;;;;;10.60;100.00;102640.09;4990879;28;48882;-78
2023/02/01 10:53:17;;;;;;;;;6.00;2.00;;;;;10.76;100.00;102636.66;4980318;28;45439;-78
2023/02/01 10:55:51;;;;;;;;;1.00;1.00;;;;;10.87;100.00;102634.03;4987871;28;45513;-79
2023/02/01 10:58:27;;;;;;;;;2.00;0.25;;;;;11.08;100.00;102638.38;4989059;28;45381;-78
2023/02/01 11:01:04;;;;;;;;;5.00;2.00;;;;;11.26;100.00;102632.28;4991673;28;45869;-78
2023/02/01 11:03:55;;;;;;;;;1.00;1.00;;;;;11.47;100.00;102626.16;4981516;28;45366;-78
2023/02/01 11:06:41;;;;;;;;;1.75;1.00;;;;;11.61;100.00;102621.78;4984824;28;45331;-77
2023/02/01 11:09:09;;;;;;;;;2.75;2.00;;;;;11.72;100.00;102621.75;4983784;28;45805;-78
2023/02/01 11:11:56;;;;;;;;;6.75;2.75;;;;;11.80;100.00;102632.13;4984976;28;45780;-76
2023/02/01 11:14:25;;;;;;;;;4.00;2.75;;;;;11.82;100.00;102618.19;4982316;27;45414;-77
2023/02/01 11:17:02;;;;;;;;;5.00;2.00;;;;;11.85;100.00;102612.13;5001180;27;45538;-77
2023/02/01 11:19:28;;;;;;;;;3.00;1.00;;;;;12.01;100.00;102619.00;5065533;27;46415;-78
2023/02/01 11:21:55;;;;;;;;;1.25;1.25;;;;;12.20;100.00;102617.19;5072132;27;45575;-78
2023/02/01 11:24:32;;;;;;;;;2.00;1.75;;;;;12.35;100.00;102616.25;5075423;27;45370;-79
2023/02/01 11:27:01;;;;;;;;;6.00;2.00;;;;;12.36;100.00;102622.31;5065554;27;45562;-78
2023/02/01 11:29:37;;;;;;;;;3.00;1.75;;;;;12.33;100.00;102630.16;5075985;27;45307;-78
2023/02/01 11:32:02;;;;;;;;;1.00;1.00;;;;;12.19;100.00;102631.13;5064390;27;45305;-79
2023/02/01 11:34:59;;;;;;;;;2.75;1.25;;;;;11.97;100.00;102622.53;5052603;27;45435;-79
2023/02/01 11:37:31;;;;;;;;;2.00;1.00;;;;;11.85;100.00;102622.56;5075113;27;45549;-78
2023/02/01 11:39:58;;;;;;;;;1.25;1.25;;;;;11.73;100.00;102617.38;5082254;27;46368;-78
2023/02/01 11:42:25;;;;;;;;;2.75;2.00;;;;;11.72;100.00;102631.28;5057721;27;45836;-78
2023/02/01 11:44:50;;;;;;;;;5.25;3.00;;;;;11.87;100.00;102617.31;5094646;27;45482;-78
2023/02/01 11:47:26;;;;;;;;;4.25;1.00;;;;;12.05;100.00;102622.47;5095229;27;65907;-79
2023/02/01 11:49:54;;;;;;;;;1.75;1.75;;;;;12.44;100.00;102623.13;5083727;27;45391;-78
2023/02/01 11:52:37;;;;;;;;;6.25;1.00;;;;;12.76;100.00;102614.22;5050483;27;45500;-79